Have a Safe July 4th! 

Flight Track Log - Related Links

Times and Time Zones

All times are in EDT time to prevent confusion due to time zone crossing. See the QXE2418 flight status page for this flight to view local times or setup timezone preferences in your user account.

Time Position Orientation Groundspeed Altitude Reporting Facility
EDT Latitude Longitude Course Direction KTS MPH feet Rate Location/Type
Mon 01:13:00 PM 43.8251 -117.0588 295° West  Level FlightAware Approximate
Mon 01:14:00 PM 43.8587 -117.1592 295° West  Level FlightAware Approximate
Mon 01:15:00 PM 43.8917 -117.2599 294° West  Level FlightAware Approximate
Mon 01:16:00 PM 43.9265 -117.3592 299° West  Level Estimated
Mon 01:17:00 PM 43.9883 -117.4286 321° Northwest  Level FlightAware Approximate
Mon 01:18:00 PM 44.0502 -117.4981 321° Northwest  Level FlightAware Approximate
Mon 01:19:00 PM 44.0835 -117.5986 298° West  Level Estimated
Mon 01:20:00 PM 44.1220 -117.6955 299° West  Level FlightAware Approximate
Mon 01:21:00 PM 44.1604 -117.7926 299° West  Level FlightAware Approximate
Mon 01:22:00 PM 44.1986 -117.8897 299° West  Level FlightAware Approximate
Mon 01:23:00 PM 44.2368 -117.9871 299° West  Level FlightAware Approximate
Mon 01:24:00 PM 44.2750 -118.0845 299° West  Level FlightAware Approximate
Mon 01:25:00 PM 44.3130 -118.1821 299° West  Level FlightAware Approximate
Mon 01:26:00 PM 44.3510 -118.2797 299° West  Level FlightAware Approximate
Mon 01:27:00 PM 44.3888 -118.3776 298° West  Level FlightAware Approximate
Mon 01:28:00 PM 44.4266 -118.4755 298° West  Level FlightAware Approximate
Mon 01:29:00 PM 44.4643 -118.5736 298° West  Level FlightAware Approximate
Mon 01:30:00 PM 44.4953 -118.6762 298° West  Level Estimated
Mon 01:31:00 PM 44.5331 -118.7744 298° West  Level FlightAware Approximate
Mon 01:32:00 PM 44.5708 -118.8726 298° West  Level FlightAware Approximate
Mon 01:33:00 PM 44.6083 -118.9710 298° West  Level FlightAware Approximate
Mon 01:34:00 PM 44.6459 -119.0695 298° West  Level FlightAware Approximate
Mon 01:35:00 PM 44.6804 -119.1605 298° West  Level FlightAware Approximate
Mon 01:36:00 PM 44.7148 -119.2516 298° West  Level FlightAware Approximate
Mon 01:37:00 PM 44.7492 -119.3428 298° West  Level FlightAware Approximate
Mon 01:38:00 PM 44.7835 -119.4341 298° West  Level FlightAware Approximate
Mon 01:39:00 PM 44.8229 -119.5396 298° West  Level FlightAware Approximate
Mon 01:40:00 PM 44.8623 -119.6451 298° West  Level FlightAware Approximate
Mon 01:41:00 PM 44.9015 -119.7508 298° West  Level FlightAware Approximate
Mon 01:42:00 PM 44.9407 -119.8567 298° West  Level FlightAware Approximate
Mon 01:43:00 PM 44.9798 -119.9627 298° West  Level FlightAware Approximate
Mon 01:44:00 PM 45.0187 -120.0688 297° West  Level FlightAware Approximate
Mon 01:45:00 PM 45.0576 -120.1751 297° West  Level FlightAware Approximate
Mon 01:46:00 PM 45.0961 -120.2819 297° West  Level FlightAware Approximate
Mon 01:47:00 PM 45.1344 -120.3887 297° West  Level FlightAware Approximate
Mon 01:48:00 PM 45.1726 -120.4957 297° West  Level FlightAware Approximate
Mon 01:49:00 PM 45.2107 -120.6028 297° West  Level FlightAware Approximate
Mon 01:50:00 PM 45.2498 -120.7093 299° West  Level FlightAware Approximate
Mon 01:51:00 PM 45.2904 -120.8147 299° West  Level FlightAware Approximate
Mon 01:52:00 PM 45.2976 -120.9366 291° West  Level FlightAware Approximate
Mon 01:53:00 PM 45.3275 -121.0486 291° West  Level FlightAware Approximate
Mon 01:54:00 PM 45.3581 -121.1602 293° West  Level FlightAware Approximate
Mon 01:55:00 PM 45.3913 -121.2705 293° West  Level FlightAware Approximate
Mon 01:56:00 PM 45.4244 -121.3808 293° West  Level FlightAware Approximate
Mon 01:57:00 PM 45.4552 -121.4924 286° West  Level FlightAware Approximate
Mon 01:58:00 PM 45.4733 -121.6095 279° West  Level FlightAware Approximate
Mon 01:59:00 PM 45.4833 -121.7285 270° West  Level FlightAware Approximate
Mon 02:00:00 PM 45.5000 -121.8459 270° West  Level FlightAware Approximate
Mon 02:01:00 PM 45.5107 -121.9643 283° West  Level FlightAware Approximate
Mon 02:02:00 PM 45.5242 -122.0828 277° West  Level FlightAware Approximate
Mon 02:03:00 PM 45.5390 -122.2004 295° West  Level FlightAware Approximate
Mon 02:04:00 PM 45.5500 -122.3172 270° West  Level FlightAware Approximate
Mon 02:05:00 PM 45.5667 -122.4251 270° West  Level FlightAware Approximate
Mon 02:06:00 PM 45.5772 -122.5402 282° West  Level FlightAware Approximate
Mon 02:07:00 PM 45.5833 -122.5833 282° West  Level FlightAware Approximate
Mon 02:08:00 PM 45.5887 -122.5969 282° West  Level Estimated
Mon 02:09:00 PM 45.5887 -122.5969 282° West  Level Estimated
Mon 02:10:00 PM 45.5887 -122.5969 282° West  Level Estimated
Mon 02:11:00 PM 45.5887 -122.5969 282° West  Level Estimated
Mon 02:12:00 PM 45.5887 -122.5969 282° West  Level Estimated
Mon 02:13:00 PM 45.5887 -122.5969 282° West  Level Estimated
Mon 02:14:00 PM 45.5887 -122.5969 282° West  Level Estimated
Mon 02:15:00 PM 45.5887 -122.5969 282° West  Level Estimated
Mon 02:16:00 PM 45.5887 -122.5969 282° West  Level Estimated
Mon 02:17:00 PM 45.5887 -122.5969 282° West  Level Estimated

Login

Don't have an account? Register now (free) for customized features, flight alerts, and more!